ADDS METAR Data INFO
IDs: Format: Raw Decoded Include TAF

Data at: 0337 UTC 19 Jul 2018

KGRN 190315Z AUTO 32003KT 10SM CLR 21/16 A2997 RMK AO2 T02130162
KGRN 190255Z AUTO 32003KT 10SM CLR 21/17 A2997 RMK AO2 T02130167
KGRN 190235Z AUTO 36006KT 10SM CLR 22/17 A2996 RMK AO2 T02170170
KGRN 190215Z AUTO 34007KT 10SM CLR 23/17 A2995 RMK AO2 LTG DSNT E T02320169
KGRN 190155Z AUTO 34006KT 10SM CLR 24/17 A2994 RMK AO2 T02440168
KGRN 190135Z AUTO 30007KT 10SM CLR 27/14 A2993 RMK AO2 T02710141
KGRN 190115Z AUTO 28008KT 10SM CLR 28/14 A2993 RMK AO2 T02790138
KGRN 190055Z AUTO 28010G14KT 10SM CLR 29/14 A2992 RMK AO2 T02850141
KGRN 190035Z AUTO 29012G16KT 10SM CLR 29/14 A2993 RMK AO2 T02900137
KGRN 190015Z AUTO 29014G18KT 10SM CLR 29/14 A2993 RMK AO2 T02920136
KGRN 182355Z AUTO 29011G16KT 10SM CLR 29/14 A2994 RMK AO2 T02930139 10299 20258
KGRN 182335Z AUTO 30015G19KT 10SM CLR 29/14 A2994 RMK AO2 T02930136
KGRN 182315Z AUTO 29016G23KT 10SM CLR 29/14 A2994 RMK AO2 T02940138
KGRN 182255Z AUTO 28014G20KT 10SM CLR 30/14 A2995 RMK AO2 LTG DSNT N T02950138
KGRN 182235Z AUTO 29012G22KT 10SM CLR 30/13 A2996 RMK AO2 T02960134
KGRN 182215Z AUTO 28016G21KT 10SM CLR 30/14 A2996 RMK AO2 T02970135
KGRN 182155Z AUTO 29013G19KT 10SM CLR 30/13 A2996 RMK AO2 T02960131
KGRN 182135Z AUTO 29014G20KT 10SM CLR 30/13 A2996 RMK AO2 T02970132
KGRN 182115Z AUTO 28009G17KT 10SM CLR 30/14 A2996 RMK AO2 T02960139
KGRN 182055Z AUTO 29010KT 10SM CLR 29/14 A2997 RMK AO2 T02930138
KGRN 182035Z AUTO 26010G15KT 10SM SCT060 29/15 A2998 RMK AO2 T02880154
KGRN 182015Z AUTO 27015G18KT 10SM SCT060 29/16 A2999 RMK AO2 T02860159
KGRN 181955Z AUTO 25011G15KT 10SM SCT050 29/15 A2999 RMK AO2 T02860149
KGRN 181935Z AUTO 26011G15KT 10SM SCT050 28/17 A2999 RMK AO2 T02810172
KGRN 181915Z AUTO 27011G16KT 10SM CLR 28/17 A3000 RMK AO2 T02750173
KGRN 181855Z AUTO 24009G16KT 10SM CLR 27/18 A3000 RMK AO2 T02720177
KGRN 181835Z AUTO 25013G17KT 10SM CLR 27/19 A3001 RMK AO2 T02670187
KGRN 181815Z AUTO 22010G17KT 10SM CLR 26/19 A3002 RMK AO2 T02600188
KGRN 181755Z AUTO 24012G18KT 10SM SCT030 26/19 A3003 RMK AO2 T02560185 10256 20144
KGRN 181735Z AUTO 21011KT 10SM SCT030 25/19 A3003 RMK AO2 T02530188
KGRN 181715Z AUTO 23013G18KT 10SM CLR 24/18 A3004 RMK AO2 T02440178
KGRN 181655Z AUTO 23011G15KT 10SM CLR 24/18 A3005 RMK AO2 T02380176
KGRN 181635Z AUTO 23014KT 10SM CLR 23/17 A3006 RMK AO2 T02300170
KGRN 181615Z AUTO 23013KT 10SM SCT047 23/17 A3006 RMK AO2 T02250167
KGRN 181555Z AUTO 22012KT 10SM BKN047 22/17 A3007 RMK AO2 T02170166
KGRN 181535Z AUTO 24014KT 10SM BKN047 21/17 A3007 RMK AO2 T02110165
KGRN 181515Z AUTO 25011KT 10SM BKN045 BKN050 20/16 A3007 RMK AO2 T02000162
KGRN 181455Z AUTO 26010KT 10SM BKN045 20/16 A3008 RMK AO2 T02020159
KGRN 181435Z AUTO 26010G14KT 10SM BKN045 20/16 A3007 RMK AO2 T01990158
KGRN 181415Z AUTO 27007KT 10SM OVC047 19/16 A3007 RMK AO2 T01860157
KGRN 181355Z AUTO 26011G15KT 10SM SCT010 BKN045 19/16 A3008 RMK AO2 T01860155
KGRN 181335Z AUTO 25009KT 10SM SCT010 SCT060 18/16 A3007 RMK AO2 T01800158
KGRN 181315Z AUTO 30003KT 10SM SCT060 17/15 A3008 RMK AO2 T01700153
KGRN 181255Z AUTO 00000KT 10SM SCT050 BKN060 17/15 A3008 RMK AO2 T01650150
KGRN 181235Z AUTO 00000KT 10SM SCT008 SCT050 SCT060 16/15 A3008 RMK AO2 T01590151
KGRN 181215Z AUTO 00000KT 10SM CLR 15/14 A3007 RMK AO2 T01500144
KGRN 181155Z AUTO 00000KT 10SM CLR 14/14 A3006 RMK AO2 60034 70034 T01430137 10170 20137
KGRN 181135Z AUTO 00000KT 10SM CLR 14/13 A3006 RMK AO2 T01370131
KGRN 181115Z AUTO 00000KT 10SM CLR 15/14 A3005 RMK AO2 T01480141
KGRN 181055Z AUTO 00000KT 10SM CLR 15/14 A3005 RMK AO2 T01510144
KGRN 181035Z AUTO 00000KT 10SM CLR 16/15 A3005 RMK AO2 LTG DSNT S T01560145
KGRN 181015Z AUTO 00000KT 10SM CLR 16/15 A3005 RMK AO2 T01610148
KGRN 180955Z AUTO 00000KT 10SM CLR 16/15 A3005 RMK AO2 T01610148
KGRN 180935Z AUTO 00000KT 10SM SCT008 16/15 A3005 RMK AO2 T01620148
KGRN 180915Z AUTO 16003KT 10SM SCT008 16/15 A3006 RMK AO2 LTG DSNT S T01620150
KGRN 180855Z AUTO 20006KT 10SM CLR 16/15 A3007 RMK AO2 P0004 60034 T01620150
KGRN 180835Z AUTO 15007KT 10SM SCT110 16/15 A3006 RMK AO2 P0004 T01620150
KGRN 180815Z AUTO 08012KT 10SM -RA SCT043 BKN065 OVC110 17/15 A3005 RMK AO2 LTG DSNT S P0004 T01650150
KGRN 180755Z AUTO 07007KT 5SM RA SCT013 SCT045 OVC075 17/15 A3012 RMK AO2 LTG DSNT S AND SW P0028 T01680148
KGRN 180735Z AUTO 00000KT 3SM +TSRA SCT010 BKN017 OVC045 17/15 A3018 RMK AO2 LTG DSNT NE SE AND NW P0018 T01650150
KGRN 180715Z AUTO 24008KT 7SM RA BKN008 OVC042 17/15 A3021 RMK AO2 LTG DSNT ALQS P0004 T01660153
KGRN 180655Z AUTO 32009KT 10SM -VCTSRA BKN042 BKN060 OVC110 17/15 A3018 RMK AO2 LTG DSNT S THRU NW T01670150 402960150
KGRN 180635Z AUTO 36011KT 10SM SCT039 BKN055 OVC120 17/15 A3016 RMK AO2 LTG DSNT SW THRU NE T01670151
KGRN 180615Z AUTO 01008KT 10SM -RA OVC037 17/15 A3017 RMK AO2 LTG DSNT NE SW AND W T01700151
KGRN 180555Z AUTO 02011KT 10SM -TSRA OVC035 17/15 A3017 RMK AO2 LTG DSNT ALQS T01700149 10286 20169
KGRN 180535Z AUTO 33016G29KT 10SM -VCTSRA SCT034 OVC040 17/14 A3018 RMK AO2 LTG DSNT W THRU N T01720143
KGRN 180515Z AUTO 34022G27KT 10SM SCT040 BKN047 21/16 A3016 RMK AO2 LTG DSNT N AND NW T02140159
KGRN 180455Z AUTO 26005KT 10SM CLR 22/17 A3012 RMK AO2 LTG DSNT W AND NW T02150173
KGRN 180435Z AUTO 17007KT 10SM CLR 22/17 A3008 RMK AO2 LTG DSNT NW T02190170
KGRN 180415Z AUTO 16007KT 10SM CLR 22/17 A3008 RMK AO2 LTG DSNT NW T02190168
KGRN 180355Z AUTO 15008KT 10SM CLR 22/17 A3008 RMK AO2 LTG DSNT W AND NW T02240168
KGRN 180335Z AUTO 15008KT 10SM CLR 23/17 A3008 RMK AO2 T02250167
KGRN 180315Z AUTO 14005KT 10SM CLR 21/17 A3009 RMK AO2 LTG DSNT N T02120169
KGRN 180255Z AUTO 10005KT 10SM CLR 21/17 A3010 RMK AO2 T02130172
KGRN 180235Z AUTO 14004KT 10SM CLR 23/17 A3009 RMK AO2 LTG DSNT NE T02290167
KGRN 180215Z AUTO 15004KT 10SM CLR 24/17 A3009 RMK AO2 T02400169
KGRN 180155Z AUTO 16005KT 10SM CLR 25/17 A3008 RMK AO2 LTG DSNT NE T02470170
KGRN 180135Z AUTO 17005KT 10SM CLR 25/17 A3008 RMK AO2 LTG DSNT NE T02530169
KGRN 180115Z AUTO 17006KT 10SM CLR 26/16 A3009 RMK AO2 T02640161
KGRN 180055Z AUTO 17008KT 10SM CLR 28/16 A3009 RMK AO2 T02750163
KGRN 180035Z AUTO 17009G14KT 10SM CLR 28/16 A3008 RMK AO2 T02800164
KGRN 180015Z AUTO 16009KT 10SM CLR 29/16 A3008 RMK AO2 T02850157
KGRN 172355Z AUTO 17009KT 10SM CLR 29/16 A3008 RMK AO2 T02880162 10296 20267
KGRN 172335Z AUTO 18009KT 10SM CLR 29/17 A3009 RMK AO2 T02920165
KGRN 172315Z AUTO 18007KT 10SM CLR 29/16 A3011 RMK AO2 LTG DSNT N T02920157
KGRN 172255Z AUTO 18006KT 10SM CLR 29/16 A3010 RMK AO2 T02940156
KGRN 172235Z AUTO 16006KT 10SM CLR 29/15 A3010 RMK AO2 T02910154
KGRN 172215Z AUTO 15007KT 10SM CLR 29/15 A3011 RMK AO2 T02940153
KGRN 172155Z AUTO 15006KT 10SM CLR 29/15 A3011 RMK AO2 T02940145
KGRN 172135Z AUTO 16007KT 10SM CLR 29/15 A3011 RMK AO2 T02920154
KGRN 172115Z AUTO 14005KT 10SM CLR 29/16 A3012 RMK AO2 T02890157
KGRN 172055Z AUTO 00000KT 10SM CLR 29/16 A3013 RMK AO2 T02910155
KGRN 172035Z AUTO 00000KT 10SM CLR 29/16 A3013 RMK AO2 T02870160
KGRN 172015Z AUTO 18004KT 10SM CLR 29/15 A3014 RMK AO2 T02850150
KGRN 171955Z AUTO 20007KT 10SM CLR 28/16 A3016 RMK AO2 T02830159
KGRN 171935Z AUTO 18004KT 10SM CLR 28/17 A3016 RMK AO2 T02820170
KGRN 171915Z AUTO 17003KT 10SM CLR 28/16 A3016 RMK AO2 LTG DSNT SW T02780162
KGRN 171850Z AUTO 23007KT 10SM CLR 28/17 A3017 RMK AO2 T02760171
KGRN 171835Z AUTO 16005KT 10SM CLR 28/17 A3016 RMK AO2 T02750174
KGRN 171815Z AUTO 00000KT 10SM CLR 27/16 A3016 RMK AO2 T02670161
KGRN 171755Z AUTO 23006KT 10SM CLR 27/17 A3017 RMK AO2 T02650174 10266 20161
KGRN 171735Z AUTO 20006KT 10SM CLR 26/18 A3017 RMK AO2 T02640177
KGRN 171715Z AUTO 24007KT 10SM CLR 26/18 A3017 RMK AO2 T02570175
KGRN 171655Z AUTO 24007KT 10SM CLR 26/18 A3017 RMK AO2 T02570181
KGRN 171635Z AUTO 23010KT 200V270 10SM CLR 25/18 A3018 RMK AO2 T02500178
KGRN 171615Z AUTO 25008KT 10SM CLR 25/18 A3018 RMK AO2 T02450181
KGRN 171555Z AUTO 23010KT 10SM CLR 24/18 A3018 RMK AO2 T02410180